Terminal Aerodrome Forecast
Issued by NWS

Home | Current Version | Previous Version | Text Only | Print | Product List | Glossary On
Versions: 1 2 3 4 5 6 7 8 9 10 11 12 13 14 15 16 17 18 19 20 21 22 23 24 25 26 27
666
FTUS43 KSGF 262326
TAFBBG
TAF
KBBG 262326Z 2700/2724 12004KT P6SM SCT120 BKN200
     FM270200 13005KT P6SM VCSH SCT080 OVC140
     FM270500 13006KT 6SM -TSRA SCT050CB OVC080
     FM271000 15005KT 6SM -TSRA OVC025CB WS020/21030KT
     FM271400 20005KT 5SM -SHRA OVC025
     FM271800 28007KT P6SM BKN025=

USA.gov is the U.S. government's official web portal to all federal, state and local government web resources and services.